createdAt,value
2019-06-07T00:02:05.896Z,95307.61
2019-06-07T00:04:33.441Z,95314.02
2019-06-07T00:07:00.819Z,95317.47
2019-06-07T00:09:28.251Z,95315.38
2019-06-07T00:11:55.713Z,95316.95
2019-06-07T00:14:23.113Z,95320.81
2019-06-07T00:16:50.555Z,95310.31
2019-06-07T00:19:18.992Z,95307.05
2019-06-07T00:22:15.841Z,95308.41
2019-06-07T00:24:16.866Z,95306.08
2019-06-07T00:26:57.735Z,95301.55
2019-06-07T00:29:16.771Z,95309.16
2019-06-07T00:31:43.979Z,95300.58
2019-06-07T00:34:11.949Z,95303.94
2019-06-07T00:36:40.734Z,95303.89
2019-06-07T00:39:10.511Z,95298.65
2019-06-07T00:41:37.823Z,95293.72
2019-06-07T00:44:05.247Z,95305.33
2019-06-07T00:46:32.690Z,95305.37
2019-06-07T00:49:00.108Z,95305.22
2019-06-07T00:51:27.525Z,95301.31
2019-06-07T00:53:55.034Z,95297.86
2019-06-07T00:56:23.527Z,95295.31
2019-06-07T00:59:10.309Z,95308.02
2019-06-07T01:01:22.686Z,95304.38
2019-06-07T01:03:49.772Z,95298.72
2019-06-07T01:06:18.119Z,95312.35
2019-06-07T01:08:46.536Z,95315.07
2019-06-07T01:11:15.910Z,95310.02
2019-06-07T01:13:43.321Z,95310.16
2019-06-07T01:16:10.762Z,95310.63
2019-06-07T01:18:45.984Z,95310.69
2019-06-07T01:21:07.610Z,95310.51
2019-06-07T01:24:04.926Z,95306.35
2019-06-07T01:26:04.372Z,95313.47
2019-06-07T01:28:31.963Z,95312.38
2019-06-07T01:30:59.600Z,95315.39
2019-06-07T01:33:48.813Z,95307.20
2019-06-07T01:35:56.546Z,95311.98
2019-06-07T01:38:25.026Z,95306.50
2019-06-07T01:40:53.302Z,95296.18
2019-06-07T01:43:26.082Z,95300.17
2019-06-07T01:45:50.003Z,95293.13
2019-06-07T01:48:21.013Z,95289.16
2019-06-07T01:50:46.856Z,95302.27
2019-06-07T01:53:14.289Z,95299.95
2019-06-07T01:55:41.660Z,95301.30
2019-06-07T01:58:09.100Z,95305.59
2019-06-07T02:00:36.509Z,95308.13
2019-06-07T02:03:03.954Z,95309.61
2019-06-07T02:05:32.424Z,95309.49
2019-06-07T02:07:59.952Z,95314.02
2019-06-07T02:10:30.267Z,95311.92
2019-06-07T02:12:56.809Z,95323.70
2019-06-07T02:15:27.562Z,95323.43
2019-06-07T02:17:53.627Z,95320.83
2019-06-07T02:20:23.857Z,95314.59
2019-06-07T02:22:50.344Z,95320.50
2019-06-07T02:25:37.294Z,95325.64
2019-06-07T02:27:47.545Z,95327.16
2019-06-07T02:32:44.833Z,95323.89
2019-06-07T02:35:13.191Z,95324.65
2019-06-07T02:37:40.599Z,95329.50
2019-06-07T02:40:08.958Z,95332.78
2019-06-07T02:42:41.884Z,95339.91
2019-06-07T02:45:08.154Z,95339.18
2019-06-07T02:47:38.039Z,95347.03
2019-06-07T02:50:04.973Z,95349.08
2019-06-07T02:52:39.161Z,95349.21
2019-06-07T02:55:01.851Z,95349.80
2019-06-07T02:57:35.573Z,95348.47
2019-06-07T03:00:07.771Z,95348.81
2019-06-07T03:02:31.624Z,95355.12
2019-06-07T03:04:57.521Z,95363.61
2019-06-07T03:07:28.286Z,95371.23
2019-06-07T03:09:56.645Z,95371.88
2019-06-07T03:12:26.572Z,95374.14
2019-06-07T03:14:54.949Z,95372.51
2019-06-07T03:17:45.731Z,95373.16
2019-06-07T03:20:14.396Z,95375.59
2019-06-07T03:22:42.382Z,95382.23
2019-06-07T03:25:10.230Z,95399.83
2019-06-07T03:27:48.266Z,95400.98
2019-06-07T03:30:36.429Z,95403.67
2019-06-07T03:32:46.261Z,95404.31
2019-06-07T03:35:07.150Z,95413.14
2019-06-07T03:37:39.499Z,95411.16
2019-06-07T03:40:04.399Z,95415.52
2019-06-07T03:42:34.119Z,95415.67
2019-06-07T03:45:01.199Z,95415.22
2019-06-07T03:47:31.927Z,95412.63
2019-06-07T03:49:57.873Z,95414.63
2019-06-07T03:52:25.317Z,95401.72
2019-06-07T03:54:52.763Z,95401.79
2019-06-07T03:57:20.135Z,95407.70
2019-06-07T03:59:47.582Z,95403.95
2019-06-07T04:02:15.033Z,95404.17
2019-06-07T04:04:43.446Z,95405.26
2019-06-07T04:07:10.875Z,95415.42
2019-06-07T04:09:42.024Z,95414.22
2019-06-07T04:12:07.633Z,95414.39
2019-06-07T04:14:37.697Z,95407.98
2019-06-07T04:17:04.518Z,95421.17
2019-06-07T04:19:34.808Z,95423.24
2019-06-07T04:22:01.283Z,95421.95
2019-06-07T04:24:28.727Z,95430.38
2019-06-07T04:26:56.230Z,95424.97
2019-06-07T04:29:32.904Z,95427.50
2019-06-07T04:31:53.169Z,95426.91
2019-06-07T04:34:20.726Z,95425.98
2019-06-07T04:36:58.539Z,95428.36
2019-06-07T04:39:21.868Z,95427.55
2019-06-07T04:41:51.599Z,95431.17
2019-06-07T04:44:20.937Z,95436.37
2019-06-07T04:46:50.378Z,95435.80
2019-06-07T04:49:19.501Z,95442.27
2019-06-07T04:51:47.826Z,95444.88
2019-06-07T04:54:18.278Z,95448.01
2019-06-07T04:56:45.697Z,95444.47
2019-06-07T04:59:13.102Z,95444.55
2019-06-07T05:01:42.621Z,95453.25
2019-06-07T05:04:10.008Z,95445.02
2019-06-07T05:06:39.661Z,95455.35
2019-06-07T05:09:06.768Z,95461.79
2019-06-07T05:11:36.427Z,95459.55
2019-06-07T05:14:03.642Z,95455.93
2019-06-07T05:16:34.753Z,95471.94
2019-06-07T05:19:00.483Z,95462.93
2019-06-07T05:21:49.168Z,95463.06
2019-06-07T05:24:06.280Z,95467.89
2019-06-07T05:26:26.546Z,95476.95
2019-06-07T05:28:54.021Z,95478.90
2019-06-07T05:33:48.415Z,95481.41
2019-06-07T05:36:16.034Z,95478.51
2019-06-07T05:38:44.989Z,95482.46
2019-06-07T05:41:12.643Z,95479.41
2019-06-07T05:43:45.657Z,95476.20
2019-06-07T05:46:09.513Z,95480.38
2019-06-07T05:48:40.306Z,95478.12
2019-06-07T05:51:06.404Z,95479.04
2019-06-07T05:53:34.707Z,95482.85
2019-06-07T05:56:02.393Z,95485.22
2019-06-07T05:58:29.882Z,95482.70
2019-06-07T06:01:40.848Z,95471.36
2019-06-07T06:03:27.112Z,95472.38
2019-06-07T06:05:55.733Z,95477.55
2019-06-07T06:08:23.492Z,95477.73
2019-06-07T06:10:50.920Z,95480.30
2019-06-07T06:13:18.857Z,95478.95
2019-06-07T06:16:00.591Z,95486.69
2019-06-07T06:18:15.633Z,95480.83
2019-06-07T06:21:04.937Z,95483.83
2019-06-07T06:23:12.385Z,95484.83
2019-06-07T06:25:42.642Z,95495.13
2019-06-07T06:28:12.279Z,95491.17
2019-06-07T06:30:38.455Z,95490.95
2019-06-07T06:33:06.081Z,95485.39
2019-06-07T06:35:33.505Z,95482.39
2019-06-07T06:38:00.991Z,95488.59
2019-06-07T06:40:28.452Z,95485.02
2019-06-07T06:42:55.918Z,95479.66
2019-06-07T06:45:23.551Z,95477.28
2019-06-07T06:47:51.040Z,95476.97
2019-06-07T06:50:19.802Z,95467.73
2019-06-07T06:52:50.770Z,95465.73
2019-06-07T06:55:17.155Z,95464.27
2019-06-07T06:57:45.839Z,95474.92
2019-06-07T07:00:14.376Z,95470.17
2019-06-07T07:03:35.087Z,95474.86
2019-06-07T07:05:12.058Z,95474.49
2019-06-07T07:07:40.286Z,95470.99
2019-06-07T07:10:08.656Z,95469.61
2019-06-07T07:12:36.059Z,95464.02
2019-06-07T07:15:06.280Z,95471.24
2019-06-07T07:17:52.642Z,95464.41
2019-06-07T07:20:04.211Z,95473.37
2019-06-07T07:22:31.677Z,95469.62
2019-06-07T07:24:59.145Z,95465.70
2019-06-07T07:27:26.489Z,95472.05
2019-06-07T07:30:34.273Z,95473.73
2019-06-07T07:32:23.260Z,95466.16
2019-06-07T07:34:54.502Z,95469.86
2019-06-07T07:37:20.027Z,95471.71
2019-06-07T07:39:50.496Z,95472.23
2019-06-07T07:42:21.154Z,95469.93
2019-06-07T07:44:47.221Z,95475.63
2019-06-07T07:47:15.704Z,95478.66
2019-06-07T07:49:44.737Z,95477.36
2019-06-07T07:52:12.473Z,95484.05
2019-06-07T07:54:39.915Z,95478.59
2019-06-07T07:57:07.346Z,95481.37
2019-06-07T07:59:43.987Z,95484.14
2019-06-07T08:02:04.108Z,95485.95
2019-06-07T08:05:12.857Z,95488.37
2019-06-07T08:07:00.756Z,95483.59
2019-06-07T08:09:28.240Z,95479.75
2019-06-07T08:12:00.286Z,95490.20
2019-06-07T08:14:25.052Z,95495.28
2019-06-07T08:16:54.489Z,95497.73
2019-06-07T08:19:21.928Z,95488.03
2019-06-07T08:21:50.605Z,95495.59
2019-06-07T08:24:18.173Z,95490.88
2019-06-07T08:27:06.724Z,95495.30
2019-06-07T08:29:14.971Z,95497.64
2019-06-07T08:31:42.460Z,95495.66
2019-06-07T08:34:09.900Z,95498.13
2019-06-07T08:36:42.376Z,95496.69
2019-06-07T08:39:07.892Z,95496.59
2019-06-07T08:41:35.987Z,95492.55
2019-06-07T08:44:22.398Z,95492.64
2019-06-07T08:46:33.110Z,95493.45
2019-06-07T08:49:03.975Z,95500.66
2019-06-07T08:51:30.374Z,95493.28
2019-06-07T08:54:20.617Z,95490.55
2019-06-07T08:56:27.251Z,95491.17
2019-06-07T08:58:56.859Z,95500.38
2019-06-07T09:01:24.003Z,95491.83
2019-06-07T09:03:52.093Z,95496.89
2019-06-07T09:07:01.881Z,95490.51
2019-06-07T09:08:50.087Z,95488.70
2019-06-07T09:11:17.531Z,95494.84
2019-06-07T09:13:45.031Z,95490.38
2019-06-07T09:16:12.559Z,95485.74
2019-06-07T09:18:43.668Z,95487.93
2019-06-07T09:21:09.876Z,95476.58
2019-06-07T09:23:37.681Z,95481.09
2019-06-07T09:26:15.992Z,95474.89
2019-06-07T09:28:34.619Z,95482.59
2019-06-07T09:31:07.837Z,95482.59
2019-06-07T09:33:31.584Z,95474.77
2019-06-07T09:36:01.579Z,95481.84
2019-06-07T09:38:28.364Z,95473.97
2019-06-07T09:40:56.319Z,95478.23
2019-06-07T09:44:00.847Z,95474.31
2019-06-07T09:45:54.514Z,95469.69
2019-06-07T09:49:08.936Z,95474.05
2019-06-07T09:50:51.292Z,95476.84
2019-06-07T09:53:22.814Z,95471.63
2019-06-07T09:55:47.989Z,95476.64
2019-06-07T09:58:50.464Z,95487.69
2019-06-07T10:00:44.841Z,95481.30
2019-06-07T10:03:21.019Z,95479.98
2019-06-07T10:05:41.778Z,95469.30
2019-06-07T10:08:41.401Z,95468.33
2019-06-07T10:10:38.505Z,95471.03
2019-06-07T10:13:06.595Z,95459.13
2019-06-07T10:15:35.404Z,95467.73
2019-06-07T10:18:02.985Z,95462.81
2019-06-07T10:20:30.477Z,95477.86
2019-06-07T10:22:59.422Z,95460.42
2019-06-07T10:25:27.125Z,95460.88
2019-06-07T10:27:54.551Z,95464.97
2019-06-07T10:30:22.281Z,95463.66
2019-06-07T10:32:52.204Z,95464.78
2019-06-07T10:35:19.147Z,95462.83
2019-06-07T10:37:46.564Z,95458.81
2019-06-07T10:40:15.083Z,95460.45
2019-06-07T10:42:42.531Z,95460.67
2019-06-07T10:45:12.265Z,95454.20
2019-06-07T10:47:39.854Z,95451.09
2019-06-07T10:50:08.161Z,95451.19
2019-06-07T10:52:35.858Z,95443.69
2019-06-07T10:55:04.558Z,95442.05
2019-06-07T10:57:32.070Z,95443.29
2019-06-07T10:59:59.521Z,95440.91
2019-06-07T11:02:27.035Z,95435.75
2019-06-07T11:04:54.468Z,95430.95
2019-06-07T11:07:21.910Z,95435.98
2019-06-07T11:10:05.618Z,95430.85
2019-06-07T11:12:18.643Z,95427.22
2019-06-07T11:14:46.335Z,95428.03
2019-06-07T11:17:15.510Z,95419.02
2019-06-07T11:19:43.126Z,95426.11
2019-06-07T11:22:10.692Z,95424.84
2019-06-07T11:24:38.101Z,95421.73
2019-06-07T11:27:07.225Z,95421.92
2019-06-07T11:29:34.952Z,95423.36
2019-06-07T11:32:02.369Z,95421.06
2019-06-07T11:34:30.225Z,95416.16
2019-06-07T11:36:57.647Z,95412.69
2019-06-07T11:39:25.202Z,95417.69
2019-06-07T11:41:52.646Z,95415.95
2019-06-07T11:44:20.006Z,95414.70
2019-06-07T11:46:47.581Z,95412.45
2019-06-07T11:49:20.259Z,95405.59
2019-06-07T11:51:44.475Z,95408.52
2019-06-07T11:54:12.123Z,95395.72
2019-06-07T11:56:39.702Z,95398.88
2019-06-07T11:59:07.157Z,95396.45
2019-06-07T12:01:37.267Z,95386.62
2019-06-07T12:04:03.901Z,95383.32
2019-06-07T12:06:31.354Z,95388.41
2019-06-07T12:08:58.850Z,95380.73
2019-06-07T12:11:26.245Z,95383.47
2019-06-07T12:13:53.691Z,95380.13
2019-06-07T12:16:21.641Z,95371.33
2019-06-07T12:18:49.148Z,95372.29
2019-06-07T12:21:17.988Z,95366.09
2019-06-07T12:23:45.656Z,95359.91
2019-06-07T12:26:14.326Z,95362.42
2019-06-07T12:28:42.111Z,95358.07
2019-06-07T12:31:10.818Z,95358.48
2019-06-07T12:33:38.422Z,95361.99
2019-06-07T12:36:06.048Z,95360.67
2019-06-07T12:38:33.581Z,95356.12
2019-06-07T12:41:01.002Z,95359.30
2019-06-07T12:43:28.463Z,95357.92
2019-06-07T12:45:55.929Z,95350.77
2019-06-07T12:48:25.964Z,95351.54
2019-06-07T12:50:52.866Z,95349.73
2019-06-07T12:53:24.906Z,95349.27
2019-06-07T12:55:49.694Z,95338.33
2019-06-07T12:58:22.067Z,95323.03
2019-06-07T13:00:46.559Z,95339.56
2019-06-07T13:03:14.322Z,95347.30
2019-06-07T13:05:41.822Z,95343.11
2019-06-07T13:08:09.333Z,95346.32
2019-06-07T13:10:36.796Z,95341.22
2019-06-07T13:13:04.341Z,95338.72
2019-06-07T13:15:31.871Z,95339.34
2019-06-07T13:17:59.327Z,95334.66
2019-06-07T13:20:26.746Z,95334.16
2019-06-07T13:22:54.323Z,95320.80
2019-06-07T13:25:25.472Z,95315.00
2019-06-07T13:27:51.152Z,95316.25
2019-06-07T13:30:19.012Z,95320.53
2019-06-07T13:32:46.527Z,95319.28
2019-06-07T13:35:14.877Z,95319.66
2019-06-07T13:37:42.663Z,95312.01
2019-06-07T13:40:11.719Z,95316.60
2019-06-07T13:42:39.171Z,95304.85
2019-06-07T13:45:08.345Z,95310.27
2019-06-07T13:47:35.769Z,95303.15
2019-06-07T13:50:03.916Z,95304.73
2019-06-07T13:52:31.360Z,95310.38
2019-06-07T13:55:02.112Z,95309.55
2019-06-07T13:57:28.209Z,95313.31
2019-06-07T13:59:55.666Z,95309.88
2019-06-07T14:02:24.035Z,95310.18
2019-06-07T14:04:52.367Z,95313.13
2019-06-07T14:07:21.233Z,95308.11
2019-06-07T14:09:48.854Z,95293.56
2019-06-07T14:12:16.250Z,95302.64
2019-06-07T14:14:43.856Z,95306.31
2019-06-07T14:17:11.767Z,95294.46
2019-06-07T14:19:39.193Z,95297.52
2019-06-07T14:22:06.608Z,95292.17
2019-06-07T14:24:34.079Z,95297.34
2019-06-07T14:27:07.560Z,95293.89
2019-06-07T14:29:35.949Z,95290.20
2019-06-07T14:32:03.945Z,95297.44
2019-06-07T14:34:32.653Z,95297.52
2019-06-07T14:37:00.246Z,95299.30
2019-06-07T14:39:29.665Z,95299.39
2019-06-07T14:42:08.569Z,95294.17
2019-06-07T14:44:27.771Z,95299.69
2019-06-07T14:46:55.341Z,95294.78
2019-06-07T14:49:24.272Z,95294.77
2019-06-07T14:51:52.147Z,95292.58
2019-06-07T14:54:19.609Z,95292.84
2019-06-07T14:56:47.100Z,95294.55
2019-06-07T14:59:14.681Z,95297.63
2019-06-07T15:01:42.174Z,95310.44
2019-06-07T15:04:09.668Z,95314.80
2019-06-07T15:06:37.127Z,95313.27
2019-06-07T15:09:05.732Z,95306.27
2019-06-07T15:11:33.526Z,95312.06
2019-06-07T15:14:01.020Z,95310.06
2019-06-07T15:16:29.987Z,95315.05
2019-06-07T15:18:57.796Z,95317.30
2019-06-07T15:21:26.615Z,95311.48
2019-06-07T15:23:54.210Z,95323.34
2019-06-07T15:26:21.672Z,95316.53
2019-06-07T15:28:49.145Z,95313.13
2019-06-07T15:31:16.582Z,95317.06
2019-06-07T15:33:44.045Z,95314.48
2019-06-07T15:36:11.526Z,95312.87
2019-06-07T15:38:39.622Z,95314.71
2019-06-07T15:41:07.209Z,95329.86
2019-06-07T15:43:35.159Z,95327.03
2019-06-07T15:46:02.684Z,95322.38
2019-06-07T15:48:30.175Z,95322.43
2019-06-07T15:50:57.639Z,95329.34
2019-06-07T15:53:25.197Z,95328.11
2019-06-07T15:55:52.555Z,95323.44
2019-06-07T15:58:20.000Z,95338.89
2019-06-07T16:00:50.024Z,95331.14
2019-06-07T16:03:16.869Z,95342.19
2019-06-07T16:05:44.260Z,95339.70
2019-06-07T16:08:11.808Z,95335.61
2019-06-07T16:10:40.852Z,95331.42
2019-06-07T16:13:08.415Z,95332.55
2019-06-07T16:15:37.054Z,95323.17
2019-06-07T16:18:04.783Z,95320.03
2019-06-07T16:20:33.240Z,95328.10
2019-06-07T16:23:00.840Z,95320.55
2019-06-07T16:25:28.237Z,95318.27
2019-06-07T16:27:55.682Z,95320.03
2019-06-07T16:30:23.358Z,95328.53
2019-06-07T16:32:50.915Z,95324.48
2019-06-07T16:35:18.512Z,95323.72
2019-06-07T16:37:51.594Z,95333.18
2019-06-07T16:40:15.463Z,95330.39
2019-06-07T16:42:43.113Z,95341.25
2019-06-07T16:45:12.790Z,95342.63
2019-06-07T16:47:42.745Z,95342.81
2019-06-07T16:50:15.103Z,95346.98
2019-06-07T16:52:46.652Z,95343.55
2019-06-07T16:55:15.646Z,95342.72
2019-06-07T16:57:43.054Z,95341.88
2019-06-07T17:00:11.143Z,95350.30
2019-06-07T17:02:40.126Z,95355.80
2019-06-07T17:05:08.440Z,95353.20
2019-06-07T17:07:36.188Z,95352.45
2019-06-07T17:10:04.632Z,95352.07
2019-06-07T17:12:32.070Z,95354.27
2019-06-07T17:14:59.717Z,95356.56
2019-06-07T17:17:27.201Z,95355.59
2019-06-07T17:19:54.681Z,95355.99
2019-06-07T17:22:22.156Z,95355.66
2019-06-07T17:24:49.973Z,95355.86
2019-06-07T17:27:17.648Z,95353.16
2019-06-07T17:29:45.836Z,95356.56
2019-06-07T17:32:15.964Z,95360.70
2019-06-07T17:34:44.283Z,95357.09
2019-06-07T17:37:11.918Z,95359.19
2019-06-07T17:39:40.547Z,95350.09
2019-06-07T17:42:08.102Z,95355.65
2019-06-07T17:44:35.563Z,95366.89
2019-06-07T17:47:03.143Z,95362.32
2019-06-07T17:49:30.581Z,95365.37
2019-06-07T17:51:58.032Z,95371.10
2019-06-07T17:54:25.541Z,95350.41
2019-06-07T17:56:53.432Z,95366.48
2019-06-07T17:59:21.061Z,95368.14
2019-06-07T18:02:10.230Z,95369.08
2019-06-07T18:04:18.057Z,95371.16
2019-06-07T18:06:47.241Z,95374.63
2019-06-07T18:09:14.933Z,95376.63
2019-06-07T18:11:43.759Z,95373.03
2019-06-07T18:14:11.505Z,95374.69
2019-06-07T18:16:39.034Z,95378.36
2019-06-07T18:19:06.532Z,95374.05
2019-06-07T18:21:33.968Z,95384.06
2019-06-07T18:24:01.363Z,95388.20
2019-06-07T18:26:28.900Z,95380.97
2019-06-07T18:28:56.354Z,95380.97
2019-06-07T18:31:23.752Z,95377.89
2019-06-07T18:33:51.288Z,95380.95
2019-06-07T18:36:18.864Z,95382.91
2019-06-07T18:38:46.886Z,95386.30
2019-06-07T18:41:14.423Z,95401.03
2019-06-07T18:43:41.821Z,95401.98
2019-06-07T18:46:09.245Z,95402.45
2019-06-07T18:48:36.847Z,95411.82
2019-06-07T18:51:04.480Z,95409.66
2019-06-07T18:53:31.938Z,95423.55
2019-06-07T18:55:59.388Z,95427.24
2019-06-07T18:58:26.877Z,95431.64
2019-06-07T19:00:55.468Z,95435.99
2019-06-07T19:03:22.991Z,95444.83
2019-06-07T19:05:50.413Z,95441.61
2019-06-07T19:08:17.793Z,95443.55
2019-06-07T19:10:45.252Z,95452.38
2019-06-07T19:13:12.677Z,95448.11
2019-06-07T19:15:43.231Z,95455.58
2019-06-07T19:18:09.772Z,95460.78
2019-06-07T19:20:37.309Z,95460.16
2019-06-07T19:23:04.877Z,95465.97
2019-06-07T19:25:32.291Z,95470.07
2019-06-07T19:28:01.063Z,95465.26
2019-06-07T19:30:28.630Z,95470.84
2019-06-07T19:32:57.298Z,95469.02
2019-06-07T19:35:25.012Z,95469.88
2019-06-07T19:37:53.787Z,95481.80
2019-06-07T19:40:21.499Z,95473.34
2019-06-07T19:42:49.322Z,95473.47
2019-06-07T19:45:34.231Z,95477.28
2019-06-07T19:47:48.738Z,95473.08
2019-06-07T19:50:17.781Z,95471.45
2019-06-07T19:52:45.275Z,95473.91
2019-06-07T19:55:13.767Z,95472.73
2019-06-07T19:57:41.175Z,95474.35
2019-06-07T20:00:14.624Z,95473.45
2019-06-07T20:02:40.497Z,95473.58
2019-06-07T20:05:11.593Z,95474.33
2019-06-07T20:07:39.048Z,95482.19
2019-06-07T20:10:06.735Z,95485.27
2019-06-07T20:12:34.174Z,95482.61
2019-06-07T20:15:23.512Z,95480.67
2019-06-07T20:17:31.506Z,95483.93
2019-06-07T20:20:00.368Z,95482.63
2019-06-07T20:22:28.062Z,95479.97
2019-06-07T20:24:56.690Z,95485.80
2019-06-07T20:27:24.256Z,95487.03
2019-06-07T20:29:51.903Z,95483.00
2019-06-07T20:32:19.338Z,95492.20
2019-06-07T20:34:46.773Z,95485.44
2019-06-07T20:37:14.161Z,95486.36
2019-06-07T20:39:41.561Z,95490.94
2019-06-07T20:42:08.994Z,95479.63
2019-06-07T20:44:36.437Z,95489.96
2019-06-07T20:47:06.155Z,95494.27
2019-06-07T20:49:33.832Z,95489.91
2019-06-07T20:52:03.029Z,95491.18
2019-06-07T20:54:30.525Z,95497.93
2019-06-07T20:56:58.782Z,95503.86
2019-06-07T20:59:26.310Z,95489.14
2019-06-07T21:01:53.739Z,95500.33
2019-06-07T21:04:21.184Z,95502.33
2019-06-07T21:06:48.540Z,95500.86
2019-06-07T21:09:15.980Z,95502.91
2019-06-07T21:11:43.417Z,95513.78
2019-06-07T21:14:10.781Z,95512.91
2019-06-07T21:16:38.210Z,95518.05
2019-06-07T21:19:06.319Z,95510.44
2019-06-07T21:21:33.810Z,95513.59
2019-06-07T21:24:02.468Z,95515.12
2019-06-07T21:26:29.968Z,95518.27
2019-06-07T21:28:57.369Z,95510.41
2019-06-07T21:31:24.793Z,95514.47
2019-06-07T21:33:52.227Z,95510.73
2019-06-07T21:36:19.666Z,95511.38
2019-06-07T21:38:47.108Z,95514.10
2019-06-07T21:41:14.467Z,95521.13
2019-06-07T21:43:41.909Z,95524.94
2019-06-07T21:46:17.317Z,95502.83
2019-06-07T21:48:38.632Z,95516.53
2019-06-07T21:51:06.410Z,95529.36
2019-06-07T21:53:33.941Z,95522.22
2019-06-07T21:56:02.766Z,95517.97
2019-06-07T21:58:30.369Z,95521.82
2019-06-07T22:01:28.642Z,95521.79
2019-06-07T22:03:56.069Z,95522.23
2019-06-07T22:06:23.625Z,95513.27
2019-06-07T22:08:51.079Z,95522.27
2019-06-07T22:11:18.488Z,95515.33
2019-06-07T22:13:45.925Z,95517.30
2019-06-07T22:16:26.766Z,95516.59
2019-06-07T22:18:43.314Z,95516.48
2019-06-07T22:21:10.841Z,95520.08
2019-06-07T22:23:38.294Z,95516.73
2019-06-07T22:26:06.995Z,95510.39
2019-06-07T22:28:34.588Z,95519.30
2019-06-07T22:31:02.019Z,95518.42
2019-06-07T22:33:29.408Z,95513.65
2019-06-07T22:35:56.930Z,95511.27
2019-06-07T22:38:24.375Z,95516.80
2019-06-07T22:40:51.747Z,95524.06
2019-06-07T22:43:19.312Z,95519.83
2019-06-07T22:45:46.777Z,95516.09
2019-06-07T22:48:15.424Z,95518.47
2019-06-07T22:50:42.926Z,95527.01
2019-06-07T22:53:11.390Z,95514.48
2019-06-07T22:55:38.978Z,95520.86
2019-06-07T22:58:06.343Z,95521.41
2019-06-07T23:00:34.776Z,95514.31
2019-06-07T23:03:02.178Z,95517.72
2019-06-07T23:05:29.570Z,95515.45
2019-06-07T23:07:56.919Z,95518.31
2019-06-07T23:10:24.358Z,95510.41
2019-06-07T23:12:51.772Z,95512.18
2019-06-07T23:15:20.731Z,95513.81
2019-06-07T23:17:48.473Z,95496.31
2019-06-07T23:20:17.864Z,95501.09
2019-06-07T23:22:45.687Z,95501.36
2019-06-07T23:25:17.644Z,95507.98
2019-06-07T23:27:42.986Z,95507.62
2019-06-07T23:30:12.398Z,95506.86
2019-06-07T23:32:39.961Z,95504.20
2019-06-07T23:35:08.107Z,95504.61
2019-06-07T23:37:35.557Z,95504.87
2019-06-07T23:40:03.518Z,95499.61
2019-06-07T23:42:31.176Z,95495.97
2019-06-07T23:44:58.511Z,95494.23
2019-06-07T23:47:25.941Z,95498.64
2019-06-07T23:49:53.354Z,95504.15
2019-06-07T23:52:21.978Z,95498.88
2019-06-07T23:54:49.611Z,95500.89
2019-06-07T23:57:19.244Z,95506.77
2019-06-07T23:59:46.384Z,95506.27
